Time;durP1;ratioP1;P1;durP2;ratioP2;P2;SDS_P1;SDS_P2;PMS_P1;PMS_P2;Temp;Humidity;BMP_temperature;BMP_pressure;BME280_temperature;BME280_humidity;BME280_pressure;Samples;Min_cycle;Max_cycle;Signal;HPM_P1;HPM_P2
2022/06/30 00:06:45;;;;;;;3.60;1.40;;;;;;;;;;21091739;28;20039;-63
2022/06/30 00:16:48;;;;;;;1.25;0.77;;;;;;;;;;21090311;28;20059;-59
2022/06/30 00:26:50;;;;;;;1.45;0.77;;;;;;;;;;21089803;28;20059;-61
2022/06/30 00:36:52;;;;;;;2.72;0.80;;;;;;;;;;21089067;28;20044;-60
2022/06/30 00:46:54;;;;;;;3.83;1.30;;;;;;;;;;21093657;28;20112;-62
2022/06/30 00:56:59;;;;;;;3.47;1.02;;;;;;;;;;21087391;28;20097;-63
2022/06/30 01:07:01;;;;;;;3.10;1.48;;;;;;;;;;21087216;28;20072;-65
2022/06/30 01:17:03;;;;;;;3.20;1.15;;;;;;;;;;21086567;28;20060;-69
2022/06/30 01:27:06;;;;;;;3.10;1.38;;;;;;;;;;21085118;28;20044;-59
2022/06/30 01:37:10;;;;;;;2.40;1.10;;;;;;;;;;21084709;28;20101;-62
2022/06/30 01:47:15;;;;;;;3.55;1.70;;;;;;;;;;21084838;28;20048;-60
2022/06/30 01:57:20;;;;;;;3.22;1.48;;;;;;;;;;21083064;28;20048;-59
2022/06/30 02:07:24;;;;;;;2.10;1.30;;;;;;;;;;21082177;28;20468;-69
2022/06/30 02:17:29;;;;;;;4.45;1.40;;;;;;;;;;21081401;28;20059;-69
2022/06/30 02:27:35;;;;;;;4.43;1.40;;;;;;;;;;21080646;28;20467;-68
2022/06/30 02:37:38;;;;;;;4.53;1.10;;;;;;;;;;21090826;28;20081;-69
2022/06/30 02:47:43;;;;;;;13.90;1.80;;;;;;;;;;21087177;28;20337;-60
2022/06/30 02:57:45;;;;;;;3.20;1.40;;;;;;;;;;21079838;28;20051;-61
2022/06/30 03:07:48;;;;;;;2.60;1.40;;;;;;;;;;21078544;28;20389;-68
2022/06/30 03:17:50;;;;;;;2.17;0.95;;;;;;;;;;21078580;28;20100;-63
2022/06/30 03:27:52;;;;;;;;;;;;;;;;;;21094549;28;20056;-70
2022/06/30 03:37:55;;;;;;;2.70;1.30;;;;;;;;;;21093731;28;19975;-68
2022/06/30 03:47:59;;;;;;;3.27;1.37;;;;;;;;;;21092960;28;20052;-70
2022/06/30 03:58:01;;;;;;;3.50;1.50;;;;;;;;;;21092737;28;20113;-65
2022/06/30 04:08:03;;;;;;;3.75;1.42;;;;;;;;;;21091563;28;20126;-68
2022/06/30 04:18:04;;;;;;;3.73;1.50;;;;;;;;;;21090477;28;20105;-58
2022/06/30 04:28:06;;;;;;;7.22;1.40;;;;;;;;;;21089728;28;20048;-67
2022/06/30 04:38:09;;;;;;;4.88;1.40;;;;;;;;;;21090122;28;20048;-70
2022/06/30 04:48:13;;;;;;;5.50;2.15;;;;;;;;;;21088687;28;20052;-71
2022/06/30 04:58:16;;;;;;;5.67;1.70;;;;;;;;;;21088265;28;20496;-70
2022/06/30 05:08:18;;;;;;;6.33;1.43;;;;;;;;;;21087788;28;20048;-66
2022/06/30 05:18:20;;;;;;;3.20;1.83;;;;;;;;;;21087086;28;20664;-60
2022/06/30 05:28:23;;;;;;;;;;;;;;;;;;21084981;28;20048;-60
2022/06/30 05:38:25;;;;;;;4.18;1.95;;;;;;;;;;21085346;28;19920;-60
2022/06/30 05:48:27;;;;;;;4.00;1.85;;;;;;;;;;21082814;28;20048;-64
2022/06/30 05:58:29;;;;;;;2.67;1.53;;;;;;;;;;21082596;28;20051;-60
2022/06/30 06:08:31;;;;;;;6.50;1.90;;;;;;;;;;21081734;28;20040;-68
2022/06/30 06:18:34;;;;;;;6.43;1.80;;;;;;;;;;21080831;28;20051;-66
2022/06/30 06:38:57;;;;;;;3.42;1.70;;;;;;;;;;21079775;28;20052;-66
2022/06/30 06:49:00;;;;;;;;;;;;;;;;;;21081249;28;20465;-63
2022/06/30 06:59:01;;;;;;;5.18;2.45;;;;;;;;;;21077880;28;19920;-70
2022/06/30 07:09:03;;;;;;;3.77;1.60;;;;;;;;;;21076119;28;20044;-64
2022/06/30 07:19:05;;;;;;;5.93;1.83;;;;;;;;;;21075847;28;20052;-62
2022/06/30 07:29:08;;;;;;;6.68;2.15;;;;;;;;;;21075201;28;20367;-62
2022/06/30 07:39:10;;;;;;;4.68;1.98;;;;;;;;;;21075941;28;20059;-68
2022/06/30 07:49:12;;;;;;;5.55;1.95;;;;;;;;;;21077800;28;20476;-68
2022/06/30 07:59:14;;;;;;;5.20;1.85;;;;;;;;;;21074847;28;20521;-57
2022/06/30 08:09:17;;;;;;;5.25;2.00;;;;;;;;;;21084417;28;20066;-55
2022/06/30 08:19:19;;;;;;;3.13;1.65;;;;;;;;;;21087655;28;20054;-59
2022/06/30 08:29:21;;;;;;;4.55;1.90;;;;;;;;;;21093379;28;20074;-59
2022/06/30 08:49:44;;;;;;;3.63;1.60;;;;;;;;;;21090625;28;20508;-62
2022/06/30 08:59:46;;;;;;;7.95;1.65;;;;;;;;;;21086649;28;20048;-58
2022/06/30 09:09:48;;;;;;;4.90;2.33;;;;;;;;;;21085554;28;20374;-55
2022/06/30 09:19:55;;;;;;;3.95;1.92;;;;;;;;;;21082044;28;20140;-61
2022/06/30 09:29:58;;;;;;;4.10;1.85;;;;;;;;;;21083537;28;20052;-60
2022/06/30 09:40:00;;;;;;;3.65;1.30;;;;;;;;;;21083170;28;20076;-55
2022/06/30 09:50:03;;;;;;;4.10;1.60;;;;;;;;;;21083438;28;20463;-64
2022/06/30 10:10:16;;;;;;;4.25;1.80;;;;;;;;;;21288057;27;20130;-61
2022/06/30 10:20:18;;;;;;;5.38;1.90;;;;;;;;;;21257498;27;20406;-54
2022/06/30 10:30:23;;;;;;;3.90;1.88;;;;;;;;;;21275787;27;20134;-55
2022/06/30 10:40:47;;;;;;;6.60;1.98;;;;;;;;;;21290617;27;20110;-58
2022/06/30 10:50:50;;;;;;;4.28;1.50;;;;;;;;;;21294280;27;20142;-58
2022/06/30 11:01:21;;;;;;;4.95;1.67;;;;;;;;;;21282462;27;20096;-56
2022/06/30 11:11:22;;;;;;;5.03;1.57;;;;;;;;;;20887216;28;20140;-56
2022/06/30 11:21:25;;;;;;;3.03;1.45;;;;;;;;;;20832761;28;20049;-56
2022/06/30 11:31:29;;;;;;;8.13;2.28;;;;;;;;;;20830709;28;20395;-59
2022/06/30 11:51:53;;;;;;;2.63;1.20;;;;;;;;;;21256667;27;20107;-57
2022/06/30 12:02:04;;;;;;;3.33;1.20;;;;;;;;;;21256529;27;20095;-60
2022/06/30 12:12:06;;;;;;;;;;;;;;;;;;21254883;27;20176;-61
2022/06/30 12:22:08;;;;;;;5.53;3.03;;;;;;;;;;21254234;27;19919;-63
2022/06/30 12:32:12;;;;;;;3.13;1.38;;;;;;;;;;21252712;27;20445;-57
2022/06/30 12:42:14;;;;;;;3.78;1.50;;;;;;;;;;21252244;27;20084;-62
2022/06/30 12:52:20;;;;;;;3.85;1.50;;;;;;;;;;21251123;27;20130;-61
2022/06/30 13:02:34;;;;;;;3.03;1.38;;;;;;;;;;21250471;27;20070;-60
2022/06/30 13:12:36;;;;;;;4.03;2.15;;;;;;;;;;21251102;27;20181;-61
2022/06/30 13:22:38;;;;;;;3.70;1.40;;;;;;;;;;21250616;27;20061;-62
2022/06/30 13:32:40;;;;;;;2.67;1.20;;;;;;;;;;21250283;27;20055;-56
2022/06/30 13:42:43;;;;;;;4.68;1.33;;;;;;;;;;21232324;27;20416;-60
2022/06/30 13:52:45;;;;;;;2.88;1.08;;;;;;;;;;21248025;27;20043;-61
2022/06/30 14:02:47;;;;;;;2.50;1.13;;;;;;;;;;21247866;27;20499;-60
2022/06/30 14:12:49;;;;;;;5.43;2.35;;;;;;;;;;21229448;27;20050;-61
2022/06/30 14:22:51;;;;;;;3.92;1.60;;;;;;;;;;21228242;28;20044;-60
2022/06/30 14:32:53;;;;;;;3.10;2.10;;;;;;;;;;21245465;27;20043;-61
2022/06/30 14:42:58;;;;;;;3.75;0.93;;;;;;;;;;21245261;27;20468;-56
2022/06/30 14:53:00;;;;;;;4.10;1.20;;;;;;;;;;21254307;27;20051;-57
2022/06/30 15:03:02;;;;;;;1.73;0.98;;;;;;;;;;21260669;27;20483;-59
2022/06/30 15:13:04;;;;;;;3.35;0.82;;;;;;;;;;21260944;27;20043;-59
2022/06/30 15:33:30;;;;;;;6.70;1.08;;;;;;;;;;21259540;27;20509;-58
2022/06/30 15:43:32;;;;;;;2.28;1.02;;;;;;;;;;21258749;27;20491;-60
2022/06/30 15:53:34;;;;;;;2.47;0.80;;;;;;;;;;21256898;27;20043;-58
2022/06/30 16:03:36;;;;;;;2.40;0.90;;;;;;;;;;21256457;27;20051;-59
2022/06/30 16:13:40;;;;;;;5.30;0.90;;;;;;;;;;21254817;27;20043;-59
2022/06/30 16:23:43;;;;;;;4.13;1.10;;;;;;;;;;21254924;27;20051;-58
2022/06/30 16:33:45;;;;;;;4.30;1.10;;;;;;;;;;21253194;27;20407;-58
2022/06/30 16:43:46;;;;;;;1.77;0.85;;;;;;;;;;21209664;27;20128;-59
2022/06/30 16:53:48;;;;;;;3.05;1.70;;;;;;;;;;21149339;28;20063;-58
2022/06/30 17:03:52;;;;;;;1.58;0.60;;;;;;;;;;21165689;28;20419;-58
2022/06/30 17:13:53;;;;;;;1.70;1.00;;;;;;;;;;21166820;28;20050;-59
2022/06/30 17:23:56;;;;;;;1.60;0.80;;;;;;;;;;21207306;27;20047;-57
2022/06/30 17:33:59;;;;;;;5.25;2.25;;;;;;;;;;21249242;27;20039;-58
2022/06/30 17:44:01;;;;;;;1.90;1.25;;;;;;;;;;21248567;27;20086;-58
2022/06/30 17:54:03;;;;;;;2.53;0.80;;;;;;;;;;21248651;27;20047;-57
2022/06/30 18:04:05;;;;;;;2.22;0.88;;;;;;;;;;21247119;27;20412;-61
2022/06/30 18:14:09;;;;;;;1.38;0.70;;;;;;;;;;21228248;28;20039;-58
2022/06/30 18:24:11;;;;;;;2.53;0.68;;;;;;;;;;21250161;27;20072;-60
2022/06/30 18:34:14;;;;;;;3.42;1.15;;;;;;;;;;21263318;27;20094;-62
2022/06/30 18:44:17;;;;;;;1.58;0.88;;;;;;;;;;21263087;27;20403;-61
2022/06/30 18:54:19;;;;;;;5.35;3.03;;;;;;;;;;21263429;27;20475;-61
2022/06/30 19:04:21;;;;;;;3.78;1.27;;;;;;;;;;21261028;27;20047;-59
2022/06/30 19:14:23;;;;;;;2.40;0.90;;;;;;;;;;21259534;27;20047;-58
2022/06/30 19:24:25;;;;;;;1.42;0.68;;;;;;;;;;21259961;27;20418;-58
2022/06/30 19:34:27;;;;;;;2.05;0.73;;;;;;;;;;21256981;27;20066;-58
2022/06/30 19:44:29;;;;;;;2.85;1.00;;;;;;;;;;21258828;27;20058;-59
2022/06/30 19:54:31;;;;;;;1.70;1.20;;;;;;;;;;21258292;27;20094;-58
2022/06/30 20:14:53;;;;;;;1.58;0.73;;;26.70;26.50;;;;;;21255512;27;20054;-57
2022/06/30 20:24:56;;;;;;;2.15;1.10;;;26.60;26.80;;;;;;21255361;27;20451;-59
2022/06/30 20:34:57;;;;;;;3.97;1.20;;;26.50;27.00;;;;;;21253730;27;20043;-58
2022/06/30 20:44:59;;;;;;;2.72;0.77;;;26.40;27.30;;;;;;21252303;27;20058;-58
2022/06/30 20:55:01;;;;;;;;;;;26.20;27.50;;;;;;21251313;27;20046;-58
2022/06/30 21:05:03;;;;;;;2.03;1.10;;;25.90;27.70;;;;;;21250901;27;20270;-59
2022/06/30 21:15:07;;;;;;;4.00;1.13;;;25.80;27.70;;;;;;21251334;27;20047;-58
2022/06/30 21:25:09;;;;;;;3.03;0.88;;;25.60;27.70;;;;;;21250696;27;20214;-58
2022/06/30 21:35:11;;;;;;;3.33;1.20;;;25.50;27.90;;;;;;21250072;27;20100;-59
2022/06/30 21:45:13;;;;;;;4.32;1.35;;;25.40;28.10;;;;;;21249005;27;20047;-58
2022/06/30 21:55:14;;;;;;;6.93;4.00;;;25.20;28.30;;;;;;21249091;27;20039;-59
2022/06/30 22:05:17;;;;;;;2.92;1.70;;;25.20;28.50;;;;;;21247820;27;20091;-58
2022/06/30 22:15:19;;;;;;;1.92;0.95;;;25.10;28.70;;;;;;21247891;28;20047;-59
2022/06/30 22:25:21;;;;;;;2.83;0.70;;;25.10;28.00;;;;;;21247690;28;20474;-57
2022/06/30 22:35:23;;;;;;;2.72;1.13;;;25.10;29.20;;;;;;21247187;28;20047;-58
2022/06/30 22:45:24;;;;;;;2.23;1.03;;;24.70;30.70;;;;;;21245696;28;20088;-59
2022/06/30 22:55:26;;;;;;;4.53;1.00;;;24.40;32.40;;;;;;21247166;28;20047;-59
2022/06/30 23:05:28;;;;;;;6.75;1.20;;;24.10;33.70;;;;;;21244755;27;20185;-59
2022/06/30 23:15:30;;;;;;;3.10;1.40;;;23.70;35.90;;;;;;21256388;27;20054;-57
2022/06/30 23:25:31;;;;;;;3.37;0.97;;;23.40;37.30;;;;;;21260411;27;20051;-57
2022/06/30 23:35:34;;;;;;;3.30;1.20;;;23.00;38.40;;;;;;21259819;27;20074;-58
2022/06/30 23:45:35;;;;;;;2.40;1.03;;;22.70;39.10;;;;;;21258441;27;20051;-57
2022/06/30 23:55:38;;;;;;;3.27;1.10;;;22.30;39.70;;;;;;21257297;27;20295;-58
